Pagrindinis puslapis
METAR-TAF:

METAR-TAF

Oro uostai :

Šendženas, Kinija

platuma: 22-33N, ilguma: 114-06E, Aukštis: 18 m

Dabartinis oras

Ataskaita buvo paskelbta 13 minutes, ne 23:00 UTC
Vėjas 12 kt iš Šiaurės
Temperatūra 15°C
Drėgmė 63%
Slėgis 1024 hPa
Matomumas 10 km arba daugiau
nėra debesų žemiau 1500 m ir nėra kamuolinių lietaus debesų

METAR: ZGSZ 292300Z 01006MPS CAVOK 15/08 Q1024 NOSIG

Laikas: 07:13 (23:13 UTC)

Prognozė

Ataskaita buvo paskelbta 8 valandos ir 5 minutes, ne 15:08 UTC
Prognozė galioja nuo 29 metu 18 UTC su 30 metu 18 UTC
Vėjas 10 kt iš Šiaurės/Šiaurės Rytų
Matomumas: 8000 m
Išsisklaidę debesys ne aukštis 4000 ft

TAF: ZGSZ 291508Z 2918/3018 02005MPS 8000 SCT040 TX24/3006Z TN16/2922Z

Orai ataskaitas ir orų prognozės (METAR, TAF).

turimą stotys yra geltonos ir raudonos taškus žemėlapyje.

Perkelti pele per norėdami pamatyti stoties vardą.

Tada spustelėkite, norėdami matyti oro stebėjimo ir prognozės.

Norėdami pakeisti žemėlapį: spustelėkite ant žalios mygtukų su juodo kryžiaus žemyn,; žalią mygtuką su brūkšneliu, jei norite nutolinti; arba žalių rodyklių gretimoms žemėlapius.


METAR-TAF: